createdAt,value
2023-02-27T00:00:38.521Z,0.9
2023-02-27T00:01:45.539Z,0.7
2023-02-27T00:02:52.966Z,0.8
2023-02-27T00:04:00.391Z,0.7
2023-02-27T00:05:07.160Z,0.8
2023-02-27T00:06:14.056Z,0.6
2023-02-27T00:07:20.936Z,0.7
2023-02-27T00:08:27.982Z,0.6
2023-02-27T00:09:34.832Z,0.6
2023-02-27T00:10:41.847Z,0.6
2023-02-27T00:11:48.757Z,0.4
2023-02-27T00:12:55.882Z,0.4
2023-02-27T00:14:03.065Z,0.5
2023-02-27T00:15:10.005Z,0.6
2023-02-27T00:16:17.034Z,0.6
2023-02-27T00:17:28.692Z,0.7
2023-02-27T00:18:35.651Z,0.4
2023-02-27T00:19:42.589Z,0.5
2023-02-27T00:20:49.501Z,0.4
2023-02-27T00:22:00.203Z,0.4
2023-02-27T00:23:07.265Z,0.5
2023-02-27T00:24:17.456Z,0.4
2023-02-27T00:25:24.691Z,0.5
2023-02-27T00:26:31.579Z,0.5
2023-02-27T00:27:40.448Z,0.5
2023-02-27T00:28:47.321Z,0.6
2023-02-27T00:29:54.291Z,0.6
2023-02-27T00:31:01.297Z,0.2
2023-02-27T00:32:08.409Z,0.3
2023-02-27T00:33:15.194Z,0.3
2023-02-27T00:34:23.240Z,0.3
2023-02-27T00:35:31.209Z,0.5
2023-02-27T00:36:40.096Z,0.2
2023-02-27T00:37:48.377Z,0.2
2023-02-27T00:38:55.330Z,0.3
2023-02-27T00:40:02.208Z,0.1
2023-02-27T00:41:09.450Z,0.3
2023-02-27T00:42:17.047Z,0.4
2023-02-27T00:43:23.918Z,0.4
2023-02-27T00:44:32.582Z,0.3
2023-02-27T00:45:40.644Z,0.4
2023-02-27T00:46:47.576Z,0.3
2023-02-27T00:47:54.527Z,0.2
2023-02-27T00:49:01.412Z,0
2023-02-27T00:50:09.295Z,0.1
2023-02-27T00:51:16.207Z,0.2
2023-02-27T00:52:24.640Z,0
2023-02-27T00:53:31.479Z,-0.2
2023-02-27T00:54:39.342Z,-0.1
2023-02-27T00:55:46.442Z,0.2
2023-02-27T00:56:57.597Z,0.2
2023-02-27T00:58:04.654Z,0.3
2023-02-27T00:59:12.944Z,0.3
2023-02-27T01:00:19.904Z,0.3
2023-02-27T01:01:27.086Z,0.2
2023-02-27T01:02:33.945Z,0.3
2023-02-27T01:03:40.801Z,0.3
2023-02-27T01:04:48.575Z,0.2
2023-02-27T01:05:55.675Z,0.3
2023-02-27T01:07:02.601Z,0.2
2023-02-27T01:08:12.362Z,0.2
2023-02-27T01:09:19.247Z,0.3
2023-02-27T01:10:27.997Z,0.2
2023-02-27T01:11:34.999Z,0.2
2023-02-27T01:12:42.704Z,0.2
2023-02-27T01:13:51.311Z,0.2
2023-02-27T01:14:58.539Z,0.2
2023-02-27T01:16:05.428Z,0.1
2023-02-27T01:17:12.243Z,0.2
2023-02-27T01:18:19.204Z,0.2
2023-02-27T01:19:26.187Z,0.1
2023-02-27T01:20:33.664Z,0.2
2023-02-27T01:21:40.597Z,0.2
2023-02-27T01:22:49.231Z,0.2
2023-02-27T01:23:56.211Z,0
2023-02-27T01:25:06.078Z,0.1
2023-02-27T01:26:14.254Z,0.1
2023-02-27T01:27:21.133Z,0.1
2023-02-27T01:28:28.242Z,0.2
2023-02-27T01:29:35.502Z,0.2
2023-02-27T01:30:42.490Z,0.1
2023-02-27T01:31:52.178Z,0.2
2023-02-27T01:32:59.078Z,0.2
2023-02-27T01:34:06.099Z,0.2
2023-02-27T01:35:13.350Z,0.2
2023-02-27T01:36:20.232Z,0.2
2023-02-27T01:37:27.107Z,0.1
2023-02-27T01:38:34.314Z,-0.1
2023-02-27T01:39:41.162Z,0
2023-02-27T01:40:48.154Z,0
2023-02-27T01:41:55.092Z,0.1
2023-02-27T01:43:02.052Z,0.2
2023-02-27T01:44:09.630Z,0.3
2023-02-27T01:45:16.639Z,0.2
2023-02-27T01:46:30.827Z,0.2
2023-02-27T01:47:38.072Z,0.3
2023-02-27T01:48:44.981Z,0.3
2023-02-27T01:49:54.500Z,0.3
2023-02-27T01:51:05.426Z,0.3
2023-02-27T01:52:12.787Z,0.4
2023-02-27T01:53:19.788Z,0.2
2023-02-27T01:54:31.050Z,0.3
2023-02-27T01:55:42.926Z,0.4
2023-02-27T01:56:49.947Z,0.4
2023-02-27T01:57:56.883Z,0.4
2023-02-27T01:59:03.810Z,0.3
2023-02-27T02:00:10.737Z,0.4
2023-02-27T02:01:20.603Z,0.4
2023-02-27T02:02:27.410Z,0.4
2023-02-27T02:03:37.975Z,0.5
2023-02-27T02:04:49.976Z,0.5
2023-02-27T02:05:59.042Z,0.4
2023-02-27T02:07:05.947Z,0.4
2023-02-27T02:08:12.864Z,0.4
2023-02-27T02:09:20.111Z,0.4
2023-02-27T02:10:27.307Z,0.3
2023-02-27T02:11:34.261Z,0.3
2023-02-27T02:12:43.971Z,0.3
2023-02-27T02:13:50.843Z,0.2
2023-02-27T02:14:57.715Z,0.2
2023-02-27T02:16:09.023Z,0.4
2023-02-27T02:17:26.163Z,0.5
2023-02-27T02:18:40.511Z,0.5
2023-02-27T02:19:52.524Z,0.3
2023-02-27T02:21:07.499Z,0.3
2023-02-27T02:22:30.166Z,0.4
2023-02-27T02:23:42.175Z,0.5
2023-02-27T02:24:51.938Z,0.5
2023-02-27T02:25:59.010Z,0.5
2023-02-27T02:27:11.043Z,0.5
2023-02-27T02:28:23.014Z,0.6
2023-02-27T02:29:40.382Z,0.5
2023-02-27T02:30:57.437Z,0.5
2023-02-27T02:32:16.298Z,0.6
2023-02-27T02:33:31.109Z,0.6
2023-02-27T02:34:43.078Z,0.6
2023-02-27T02:35:55.013Z,0.5
2023-02-27T02:37:07.022Z,0.7
2023-02-27T02:38:24.694Z,0.7
2023-02-27T02:39:41.822Z,0.5
2023-02-27T02:40:53.733Z,0.5
2023-02-27T02:42:05.774Z,0.5
2023-02-27T02:43:19.202Z,0.7
2023-02-27T02:44:31.394Z,0.7
2023-02-27T02:45:43.481Z,0.5
2023-02-27T02:46:53.229Z,0.6
2023-02-27T02:48:07.910Z,0.3
2023-02-27T02:49:25.030Z,0.4
2023-02-27T02:50:42.127Z,0.5
2023-02-27T02:51:59.423Z,0.5
2023-02-27T02:53:14.089Z,0.6
2023-02-27T02:54:31.183Z,0.7
2023-02-27T02:55:48.299Z,0.6
2023-02-27T02:56:57.839Z,0.6
2023-02-27T02:58:12.548Z,0.6
2023-02-27T02:59:27.235Z,0.6
2023-02-27T03:00:39.255Z,0.6
2023-02-27T03:01:46.219Z,0.6
2023-02-27T03:03:03.644Z,0.6
2023-02-27T03:04:16.818Z,0.7
2023-02-27T03:05:28.791Z,0.6
2023-02-27T03:06:36.250Z,0.6
2023-02-27T03:07:48.572Z,0.6
2023-02-27T03:09:01.062Z,0.6
2023-02-27T03:10:16.125Z,0.6
2023-02-27T03:11:23.088Z,0.5
2023-02-27T03:12:30.859Z,0.6
2023-02-27T03:13:37.821Z,0.6
2023-02-27T03:14:49.692Z,0.5
2023-02-27T03:16:07.637Z,0.6
2023-02-27T03:17:17.570Z,0.5
2023-02-27T03:18:24.540Z,0.4
2023-02-27T03:19:34.150Z,0.3
2023-02-27T03:20:41.056Z,0.2
2023-02-27T03:21:50.578Z,0.3
2023-02-27T03:23:02.621Z,0.1
2023-02-27T03:24:12.593Z,0.3
2023-02-27T03:25:24.534Z,0.4
2023-02-27T03:26:31.543Z,0.4
2023-02-27T03:27:38.513Z,0.3
2023-02-27T03:28:48.162Z,0.1
2023-02-27T03:29:58.026Z,0.2
2023-02-27T03:31:10.620Z,0.3
2023-02-27T03:32:21.561Z,0.1
2023-02-27T03:33:34.272Z,0.2
2023-02-27T03:34:41.209Z,0.2
2023-02-27T03:35:48.179Z,0.4
2023-02-27T03:36:58.190Z,0.4
2023-02-27T03:38:12.565Z,0.5
2023-02-27T03:39:24.620Z,0.5
2023-02-27T03:40:34.684Z,0.5
2023-02-27T03:41:43.190Z,0.5
2023-02-27T03:42:55.894Z,0.4
2023-02-27T03:44:05.971Z,0.5
2023-02-27T03:45:15.912Z,0.5
2023-02-27T03:46:25.565Z,0.3
2023-02-27T03:47:32.508Z,0.3
2023-02-27T03:48:39.337Z,0.3
2023-02-27T03:49:49.981Z,0.5
2023-02-27T03:50:57.688Z,0.5
2023-02-27T03:52:04.696Z,0.5
2023-02-27T03:53:11.875Z,0.4
2023-02-27T03:54:29.252Z,0.4
2023-02-27T03:55:37.097Z,0.3
2023-02-27T03:56:43.993Z,0.3
2023-02-27T03:57:52.377Z,0.3
2023-02-27T03:58:59.914Z,0.3
2023-02-27T04:00:06.880Z,0.3
2023-02-27T04:01:14.105Z,0.4
2023-02-27T04:02:23.838Z,0.3
2023-02-27T04:03:30.888Z,0.3
2023-02-27T04:04:37.792Z,0.4
2023-02-27T04:05:47.364Z,0.4
2023-02-27T04:06:54.641Z,0.5
2023-02-27T04:08:06.548Z,0.5
2023-02-27T04:09:21.873Z,0.6
2023-02-27T04:10:33.834Z,0.5
2023-02-27T04:11:48.837Z,0.6
2023-02-27T04:13:05.979Z,0.6
2023-02-27T04:14:23.018Z,0.6
2023-02-27T04:15:33.698Z,0.6
2023-02-27T04:16:42.053Z,0.5
2023-02-27T04:17:56.416Z,0.5
2023-02-27T04:19:08.508Z,0.5
2023-02-27T04:20:18.302Z,0.5
2023-02-27T04:21:37.380Z,0.5
2023-02-27T04:22:52.269Z,0.6
2023-02-27T04:24:03.370Z,0.6
2023-02-27T04:25:20.254Z,0.6
2023-02-27T04:26:35.064Z,0.5
2023-02-27T04:27:54.706Z,0.4
2023-02-27T04:29:08.300Z,0.4
2023-02-27T04:30:23.915Z,0.5
2023-02-27T04:31:36.169Z,0.1
2023-02-27T04:32:56.137Z,0.3
2023-02-27T04:34:11.088Z,0.4
2023-02-27T04:35:28.462Z,0.4
2023-02-27T04:36:35.338Z,0.6
2023-02-27T04:37:44.954Z,0.5
2023-02-27T04:38:51.962Z,0.5
2023-02-27T04:40:04.431Z,0.5
2023-02-27T04:41:16.944Z,0.5
2023-02-27T04:42:26.523Z,0.5
2023-02-27T04:43:33.435Z,0.5
2023-02-27T04:44:40.507Z,0.5
2023-02-27T04:45:48.271Z,0.4
2023-02-27T04:46:56.735Z,0.4
2023-02-27T04:48:03.788Z,0.5
2023-02-27T04:49:10.634Z,0.5
2023-02-27T04:50:25.805Z,0.6
2023-02-27T04:51:38.184Z,0.6
2023-02-27T04:52:50.172Z,0.6
2023-02-27T04:54:02.152Z,0.5
2023-02-27T04:55:13.913Z,0.5
2023-02-27T04:56:21.368Z,0.5
2023-02-27T04:57:28.409Z,0.3
2023-02-27T04:58:37.822Z,0.4
2023-02-27T04:59:44.712Z,0.4
2023-02-27T05:00:51.956Z,0.4
2023-02-27T05:01:59.223Z,0.4
2023-02-27T05:03:06.732Z,0.5
2023-02-27T05:04:13.659Z,0.4
2023-02-27T05:05:20.540Z,0.4
2023-02-27T05:06:27.386Z,0.3
2023-02-27T05:07:37.865Z,0.4
2023-02-27T05:08:44.733Z,0.4
2023-02-27T05:09:56.671Z,0.4
2023-02-27T05:11:06.615Z,0.4
2023-02-27T05:12:18.562Z,0.3
2023-02-27T05:13:35.663Z,0.4
2023-02-27T05:14:48.667Z,0.3
2023-02-27T05:15:55.651Z,0
2023-02-27T05:17:07.605Z,0.3
2023-02-27T05:18:22.978Z,0.2
2023-02-27T05:19:30.470Z,0.3
2023-02-27T05:20:40.347Z,-0.2
2023-02-27T05:21:54.919Z,0
2023-02-27T05:23:06.923Z,0.1
2023-02-27T05:24:13.775Z,0.3
2023-02-27T05:25:31.546Z,0.3
2023-02-27T05:26:40.694Z,0.4
2023-02-27T05:27:55.525Z,0.5
2023-02-27T05:29:05.259Z,0.5
2023-02-27T05:30:21.141Z,0
2023-02-27T05:31:36.173Z,0.2
2023-02-27T05:32:48.231Z,0.2
2023-02-27T05:33:57.987Z,0.3
2023-02-27T05:35:07.602Z,0.3
2023-02-27T05:36:19.666Z,0.2
2023-02-27T05:37:31.589Z,0.4
2023-02-27T05:38:48.612Z,0.3
2023-02-27T05:39:55.697Z,0.4
2023-02-27T05:41:02.557Z,0.4
2023-02-27T05:42:14.559Z,0.4
2023-02-27T05:43:21.430Z,0.4
2023-02-27T05:44:28.458Z,0.5
2023-02-27T05:45:41.524Z,0.2
2023-02-27T05:46:48.368Z,0
2023-02-27T05:48:03.028Z,0.2
2023-02-27T05:49:14.994Z,0.1
2023-02-27T05:50:21.853Z,0.1
2023-02-27T05:51:30.673Z,0.2
2023-02-27T05:52:37.585Z,0.3
2023-02-27T05:53:46.381Z,0
2023-02-27T05:54:55.954Z,-0.1
2023-02-27T05:56:08.154Z,0.1
2023-02-27T05:57:17.543Z,0.2
2023-02-27T05:58:27.312Z,0.3
2023-02-27T05:59:39.494Z,0.2
2023-02-27T06:00:50.149Z,0.3
2023-02-27T06:01:57.175Z,0.5
2023-02-27T06:03:03.985Z,0.4
2023-02-27T06:04:10.824Z,0.5
2023-02-27T06:05:17.732Z,0.6
2023-02-27T06:06:24.606Z,0.7
2023-02-27T06:07:31.493Z,0.7
2023-02-27T06:08:38.352Z,0.6
2023-02-27T06:09:45.241Z,0.7
2023-02-27T06:10:52.097Z,0.7
2023-02-27T06:11:58.931Z,0.6
2023-02-27T06:13:05.857Z,0.6
2023-02-27T06:14:15.626Z,0.6
2023-02-27T06:15:24.231Z,0.5
2023-02-27T06:16:35.099Z,0.7
2023-02-27T06:17:42.861Z,0.7
2023-02-27T06:18:54.200Z,0.7
2023-02-27T06:20:02.132Z,0.6
2023-02-27T06:21:12.174Z,0.6
2023-02-27T06:22:19.082Z,0.3
2023-02-27T06:23:27.842Z,0.5
2023-02-27T06:24:34.676Z,0.3
2023-02-27T06:25:41.510Z,0.4
2023-02-27T06:26:49.223Z,0.4
2023-02-27T06:27:56.117Z,0.5
2023-02-27T06:29:02.930Z,0.5
2023-02-27T06:30:09.808Z,0.6
2023-02-27T06:31:19.715Z,0.7
2023-02-27T06:32:26.532Z,0.7
2023-02-27T06:33:33.371Z,0.6
2023-02-27T06:34:40.275Z,0.6
2023-02-27T06:35:50.205Z,0.5
2023-02-27T06:36:56.908Z,0.6
2023-02-27T06:38:03.827Z,0.6
2023-02-27T06:39:12.713Z,0.1
2023-02-27T06:40:19.539Z,0.3
2023-02-27T06:41:26.446Z,0.5
2023-02-27T06:42:34.116Z,0.5
2023-02-27T06:43:44.031Z,0.5
2023-02-27T06:44:50.978Z,0.5
2023-02-27T06:45:57.874Z,0.6
2023-02-27T06:47:04.641Z,0.7
2023-02-27T06:48:11.479Z,0.8
2023-02-27T06:49:18.383Z,0.7
2023-02-27T06:50:26.286Z,0.5
2023-02-27T06:51:33.870Z,0.4
2023-02-27T06:52:40.615Z,0.6
2023-02-27T06:53:47.418Z,0.4
2023-02-27T06:54:54.272Z,0.5
2023-02-27T06:56:01.232Z,0.5
2023-02-27T06:57:08.443Z,0.6
2023-02-27T06:58:15.234Z,0.4
2023-02-27T06:59:22.038Z,0.4
2023-02-27T07:00:28.853Z,0.4
2023-02-27T07:01:35.733Z,0.4
2023-02-27T07:02:42.547Z,0.5
2023-02-27T07:03:49.341Z,0.6
2023-02-27T07:04:56.256Z,0.6
2023-02-27T07:06:03.064Z,0.4
2023-02-27T07:07:33.545Z,0.1
2023-02-27T07:08:17.796Z,0.3
2023-02-27T07:09:24.820Z,0.4
2023-02-27T07:10:31.963Z,0.6
2023-02-27T07:11:38.813Z,0.6
2023-02-27T07:12:47.703Z,0.7
2023-02-27T07:13:54.577Z,0.6
2023-02-27T07:15:02.492Z,0.5
2023-02-27T07:16:09.522Z,0.4
2023-02-27T07:17:16.325Z,0.5
2023-02-27T07:18:23.212Z,0.6
2023-02-27T07:19:30.087Z,0.7
2023-02-27T07:20:37.799Z,0.6
2023-02-27T07:21:46.319Z,0.5
2023-02-27T07:22:54.135Z,0.4
2023-02-27T07:24:01.055Z,0.6
2023-02-27T07:25:07.996Z,0.6
2023-02-27T07:26:14.824Z,0.6
2023-02-27T07:27:21.648Z,0.8
2023-02-27T07:28:29.333Z,0.9
2023-02-27T07:29:36.382Z,0.8
2023-02-27T07:30:43.481Z,0.7
2023-02-27T07:31:50.609Z,0.6
2023-02-27T07:32:57.399Z,0.6
2023-02-27T07:34:04.417Z,0.5
2023-02-27T07:35:11.449Z,0.7
2023-02-27T07:36:18.392Z,0.6
2023-02-27T07:37:27.695Z,0.6
2023-02-27T07:38:32.179Z,0.7
2023-02-27T07:39:39.031Z,0.7
2023-02-27T07:40:45.988Z,0.8
2023-02-27T07:41:53.585Z,0.8
2023-02-27T07:43:00.374Z,1
2023-02-27T07:44:07.257Z,1
2023-02-27T07:45:14.100Z,1
2023-02-27T07:46:26.830Z,0.9
2023-02-27T07:47:33.469Z,0.9
2023-02-27T07:48:41.335Z,0.7
2023-02-27T07:49:48.279Z,0.8
2023-02-27T07:50:55.371Z,0.7
2023-02-27T07:52:02.199Z,0.6
2023-02-27T07:53:08.988Z,0.9
2023-02-27T07:54:15.928Z,0.9
2023-02-27T07:55:22.903Z,1
2023-02-27T07:56:30.393Z,1
2023-02-27T07:57:39.868Z,1.2
2023-02-27T07:58:46.704Z,1.2
2023-02-27T07:59:55.126Z,1.2
2023-02-27T08:01:01.977Z,1.3
2023-02-27T08:02:08.952Z,1.2
2023-02-27T08:03:16.001Z,1
2023-02-27T08:04:22.851Z,0.9
2023-02-27T08:05:29.653Z,1.1
2023-02-27T08:06:37.261Z,1.1
2023-02-27T08:07:44.268Z,1
2023-02-27T08:08:51.064Z,1.1
2023-02-27T08:09:57.882Z,1.1
2023-02-27T08:11:05.875Z,1.1
2023-02-27T08:12:12.674Z,1.1
2023-02-27T08:13:25.143Z,1
2023-02-27T08:14:27.173Z,1.3
2023-02-27T08:15:34.117Z,1.3
2023-02-27T08:16:41.023Z,1.4
2023-02-27T08:17:47.769Z,1.6
2023-02-27T08:18:54.638Z,1.2
2023-02-27T08:20:01.509Z,1.3
2023-02-27T08:21:08.644Z,1.2
2023-02-27T08:22:16.827Z,1.2
2023-02-27T08:23:23.660Z,1.2
2023-02-27T08:24:30.539Z,1.4
2023-02-27T08:25:38.419Z,1.4
2023-02-27T08:26:45.181Z,1.2
2023-02-27T08:27:52.104Z,1.3
2023-02-27T08:29:01.592Z,1.4
2023-02-27T08:30:08.350Z,1.4
2023-02-27T08:31:16.573Z,1.5
2023-02-27T08:32:23.471Z,1.4
2023-02-27T08:33:31.291Z,1.4
2023-02-27T08:34:38.199Z,1.1
2023-02-27T08:35:48.112Z,0.9
2023-02-27T08:36:54.920Z,1
2023-02-27T08:38:01.759Z,1
2023-02-27T08:39:08.565Z,1.1
2023-02-27T08:40:15.429Z,1.2
2023-02-27T08:41:24.552Z,1.4
2023-02-27T08:42:32.396Z,1.3
2023-02-27T08:43:41.225Z,1.1
2023-02-27T08:44:49.440Z,1.1
2023-02-27T08:45:59.538Z,1.1
2023-02-27T08:47:06.490Z,1.2
2023-02-27T08:48:15.228Z,1.3
2023-02-27T08:49:22.127Z,1.4
2023-02-27T08:50:29.282Z,1.5
2023-02-27T08:51:38.180Z,1.5
2023-02-27T08:52:46.641Z,1.4
2023-02-27T08:53:53.599Z,1.3
2023-02-27T08:55:00.443Z,1.3
2023-02-27T08:56:07.374Z,1.2
2023-02-27T08:57:17.588Z,1.4
2023-02-27T08:58:24.424Z,1.5
2023-02-27T08:59:31.326Z,1.5
2023-02-27T09:00:39.558Z,1.6
2023-02-27T09:01:48.832Z,1.6
2023-02-27T09:02:58.135Z,1.6
2023-02-27T09:04:05.116Z,1.7
2023-02-27T09:05:12.047Z,1.7
2023-02-27T09:06:25.162Z,1.8
2023-02-27T09:07:29.952Z,1.9
2023-02-27T09:08:36.872Z,1.9
2023-02-27T09:09:43.808Z,1.9
2023-02-27T09:10:55.214Z,2
2023-02-27T09:12:02.232Z,1.9
2023-02-27T09:13:09.297Z,1.6
2023-02-27T09:14:17.366Z,1.7
2023-02-27T09:15:24.275Z,1.6
2023-02-27T09:16:32.154Z,1.7
2023-02-27T09:17:38.992Z,1.9
2023-02-27T09:18:49.076Z,1.9
2023-02-27T09:19:57.466Z,1.9
2023-02-27T09:21:03.479Z,1.9
2023-02-27T09:22:10.385Z,1.9
2023-02-27T09:23:18.020Z,1.9
2023-02-27T09:24:24.949Z,1.8
2023-02-27T09:25:31.944Z,1.7
2023-02-27T09:26:45.119Z,1.9
2023-02-27T09:27:45.982Z,1.7
2023-02-27T09:28:52.877Z,1.7
2023-02-27T09:30:00.373Z,1.8
2023-02-27T09:31:09.923Z,1.7
2023-02-27T09:32:17.017Z,1.8
2023-02-27T09:33:23.875Z,1.7
2023-02-27T09:34:30.845Z,1.5
2023-02-27T09:35:37.959Z,1.6
2023-02-27T09:36:47.178Z,1.8
2023-02-27T09:37:55.386Z,1.9
2023-02-27T09:39:05.045Z,1.9
2023-02-27T09:40:12.206Z,2.1
2023-02-27T09:41:27.694Z,2
2023-02-27T09:42:45.312Z,1.7
2023-02-27T09:43:52.104Z,1.8
2023-02-27T09:44:59.075Z,1.8
2023-02-27T09:46:06.109Z,1.9
2023-02-27T09:47:13.070Z,1.9
2023-02-27T09:48:27.910Z,2
2023-02-27T09:49:37.768Z,1.8
2023-02-27T09:50:55.053Z,2
2023-02-27T09:52:02.120Z,1.7
2023-02-27T09:53:09.095Z,2
2023-02-27T09:54:18.971Z,1.8
2023-02-27T09:55:26.061Z,1.8
2023-02-27T09:56:33.984Z,2
2023-02-27T09:57:48.687Z,1.9
2023-02-27T09:59:00.681Z,2.1
2023-02-27T10:00:17.790Z,2
2023-02-27T10:01:33.506Z,2
2023-02-27T10:02:40.503Z,1.8
2023-02-27T10:03:47.340Z,1.5
2023-02-27T10:05:04.668Z,1.6
2023-02-27T10:06:22.491Z,1.8
2023-02-27T10:07:34.537Z,1.8
2023-02-27T10:08:51.647Z,1.9
2023-02-27T10:10:06.101Z,1.9
2023-02-27T10:11:22.886Z,2.1
2023-02-27T10:12:40.747Z,2.3
2023-02-27T10:13:57.776Z,2.3
2023-02-27T10:15:07.562Z,2.5
2023-02-27T10:16:19.620Z,2.5
2023-02-27T10:17:27.016Z,2.4
2023-02-27T10:18:33.983Z,2.5
2023-02-27T10:19:46.972Z,2.6
2023-02-27T10:20:53.982Z,2.7
2023-02-27T10:22:03.699Z,2.7
2023-02-27T10:23:10.699Z,2.6
2023-02-27T10:24:19.787Z,2.8
2023-02-27T10:25:32.506Z,2.8
2023-02-27T10:26:41.713Z,2.8
2023-02-27T10:27:48.605Z,2.7
2023-02-27T10:28:57.869Z,2.7
2023-02-27T10:30:17.343Z,2.5
2023-02-27T10:31:27.972Z,2.7
2023-02-27T10:32:35.377Z,2.7
2023-02-27T10:33:43.845Z,2.8
2023-02-27T10:34:50.777Z,3
2023-02-27T10:36:02.070Z,3.2
2023-02-27T10:37:06.946Z,3.3
2023-02-27T10:38:13.861Z,3.1
2023-02-27T10:39:21.129Z,2.7
2023-02-27T10:40:31.931Z,2.2
2023-02-27T10:41:39.908Z,2.4
2023-02-27T10:42:45.865Z,2.5
2023-02-27T10:43:55.984Z,2.4
2023-02-27T10:45:03.080Z,2.5
2023-02-27T10:46:10.474Z,2.8
2023-02-27T10:47:23.143Z,3
2023-02-27T10:48:30.091Z,3
2023-02-27T10:49:37.104Z,3.3
2023-02-27T10:50:48.377Z,3.1
2023-02-27T10:51:55.870Z,3.3
2023-02-27T10:53:08.931Z,3.4
2023-02-27T10:54:23.945Z,3.4
2023-02-27T10:55:30.884Z,3.5
2023-02-27T10:56:41.409Z,3.8
2023-02-27T10:57:48.406Z,3.7
2023-02-27T10:58:58.091Z,3.8
2023-02-27T11:00:07.948Z,3.6
2023-02-27T11:01:20.298Z,3.7
2023-02-27T11:02:29.986Z,3.9
2023-02-27T11:03:43.778Z,3.4
2023-02-27T11:04:54.664Z,3.6
2023-02-27T11:06:02.683Z,3.9
2023-02-27T11:07:09.919Z,3.9
2023-02-27T11:08:16.823Z,3.9
2023-02-27T11:09:26.430Z,3.6
2023-02-27T11:10:33.470Z,3.2
2023-02-27T11:11:41.284Z,3.3
2023-02-27T11:12:48.515Z,3.5
2023-02-27T11:14:05.881Z,3.3
2023-02-27T11:15:23.025Z,3.6
2023-02-27T11:16:29.940Z,3.5
2023-02-27T11:17:36.890Z,3.7
2023-02-27T11:18:45.010Z,3.6
2023-02-27T11:19:54.991Z,3.8
2023-02-27T11:21:01.921Z,3.9
2023-02-27T11:22:12.026Z,3.9
2023-02-27T11:23:21.461Z,3.9
2023-02-27T11:24:28.821Z,4
2023-02-27T11:25:36.257Z,3.8
2023-02-27T11:26:43.126Z,4
2023-02-27T11:27:58.286Z,3.8
2023-02-27T11:29:16.526Z,3.8
2023-02-27T11:30:23.747Z,3.7
2023-02-27T11:31:33.659Z,3.5
2023-02-27T11:32:40.569Z,3.5
2023-02-27T11:33:47.776Z,3.5
2023-02-27T11:34:54.786Z,2.9
2023-02-27T11:36:02.967Z,2.5
2023-02-27T11:37:09.935Z,2.5
2023-02-27T11:38:27.104Z,2.6
2023-02-27T11:39:34.055Z,2.6
2023-02-27T11:40:41.016Z,2.7
2023-02-27T11:41:55.659Z,2.6
2023-02-27T11:43:05.381Z,2.4
2023-02-27T11:44:24.018Z,2.3
2023-02-27T11:46:05.335Z,2.2
2023-02-27T11:46:48.205Z,1.7
2023-02-27T11:47:57.309Z,1.8
2023-02-27T11:49:02.396Z,1.8
2023-02-27T11:50:10.366Z,1.9
2023-02-27T11:51:22.462Z,2.1
2023-02-27T11:52:39.356Z,2.2
2023-02-27T11:53:53.897Z,2.2
2023-02-27T11:55:11.239Z,2.3
2023-02-27T11:56:18.262Z,2.4
2023-02-27T11:57:29.421Z,2.3
2023-02-27T11:58:36.493Z,2.3
2023-02-27T11:59:51.233Z,2.4
2023-02-27T12:01:01.222Z,2.4
2023-02-27T12:02:10.987Z,2.5
2023-02-27T12:03:25.921Z,2.5
2023-02-27T12:04:46.998Z,2.6
2023-02-27T12:06:00.183Z,2.6
2023-02-27T12:07:07.386Z,2.5
2023-02-27T12:08:19.503Z,2.4
2023-02-27T12:09:36.617Z,2.4
2023-02-27T12:10:48.917Z,2.2
2023-02-27T12:11:58.387Z,2.3
2023-02-27T12:13:07.010Z,2.2
2023-02-27T12:14:22.503Z,2.2
2023-02-27T12:15:37.237Z,2.3
2023-02-27T12:16:49.676Z,2.2
2023-02-27T12:18:04.703Z,2.3
2023-02-27T12:19:14.685Z,2.4
2023-02-27T12:20:22.677Z,2.3
2023-02-27T12:21:35.711Z,2
2023-02-27T12:22:50.326Z,2.3
2023-02-27T12:23:57.245Z,2.4
2023-02-27T12:25:12.846Z,2.1
2023-02-27T12:26:29.669Z,2.1
2023-02-27T12:27:36.465Z,2
2023-02-27T12:28:49.209Z,2.2
2023-02-27T12:30:01.168Z,2.2
2023-02-27T12:31:11.211Z,2.3
2023-02-27T12:32:28.216Z,2.3
2023-02-27T12:33:38.126Z,2.3
2023-02-27T12:34:53.139Z,2.2
2023-02-27T12:36:00.716Z,2.3
2023-02-27T12:37:08.018Z,2.2
2023-02-27T12:38:15.046Z,2.1
2023-02-27T12:39:24.110Z,2.1
2023-02-27T12:40:31.869Z,2.3
2023-02-27T12:41:46.866Z,2.3
2023-02-27T12:42:59.455Z,2.2
2023-02-27T12:44:14.190Z,2.4
2023-02-27T12:45:27.686Z,2.4
2023-02-27T12:46:44.666Z,2.5
2023-02-27T12:47:51.637Z,2.1
2023-02-27T12:49:03.524Z,2
2023-02-27T12:50:16.021Z,2.1
2023-02-27T12:51:24.303Z,2.1
2023-02-27T12:52:39.342Z,2.2
2023-02-27T12:53:54.227Z,2.1
2023-02-27T12:55:12.096Z,2.2
2023-02-27T12:56:23.177Z,2.1
2023-02-27T12:57:30.997Z,2.1
2023-02-27T12:58:45.787Z,2.3
2023-02-27T12:59:58.678Z,2.3
2023-02-27T13:01:12.666Z,2.4
2023-02-27T13:02:28.281Z,2.4
2023-02-27T13:03:45.376Z,2.4
2023-02-27T13:04:58.061Z,2.3
2023-02-27T13:06:08.319Z,2.5
2023-02-27T13:07:21.032Z,2.5
2023-02-27T13:08:28.002Z,2.5
2023-02-27T13:09:45.140Z,2.2
2023-02-27T13:11:02.216Z,2.3
2023-02-27T13:12:14.200Z,2.3
2023-02-27T13:13:26.717Z,2.2
2023-02-27T13:14:40.406Z,2.1
2023-02-27T13:15:53.056Z,2.1
2023-02-27T13:17:08.865Z,2.1
2023-02-27T13:18:16.592Z,2.2
2023-02-27T13:19:29.588Z,2.1
2023-02-27T13:20:41.703Z,2.2
2023-02-27T13:21:51.501Z,2.4
2023-02-27T13:22:59.331Z,2.2
2023-02-27T13:24:14.277Z,2.1
2023-02-27T13:25:25.723Z,2.3
2023-02-27T13:26:33.093Z,2.4
2023-02-27T13:27:40.088Z,2.4
2023-02-27T13:28:50.914Z,2.4
2023-02-27T13:29:57.858Z,2.1
2023-02-27T13:31:08.670Z,2.1
2023-02-27T13:32:20.158Z,2.3
2023-02-27T13:33:28.359Z,2.3
2023-02-27T13:34:44.359Z,2.2
2023-02-27T13:35:54.132Z,2.3
2023-02-27T13:37:11.280Z,2.4
2023-02-27T13:38:21.158Z,2.3
2023-02-27T13:39:38.169Z,2
2023-02-27T13:40:48.216Z,2.1
2023-02-27T13:41:55.133Z,2.1
2023-02-27T13:43:05.101Z,2.3
2023-02-27T13:44:22.281Z,2.2
2023-02-27T13:45:29.210Z,2.4
2023-02-27T13:46:46.428Z,2.4
2023-02-27T13:47:54.999Z,2.4
2023-02-27T13:49:00.374Z,2.5
2023-02-27T13:50:10.015Z,2.7
2023-02-27T13:51:22.097Z,2.6
2023-02-27T13:52:39.958Z,2.7
2023-02-27T13:53:46.872Z,2.8
2023-02-27T13:54:59.825Z,2.8
2023-02-27T13:56:03.050Z,2.6
2023-02-27T13:57:20.900Z,2.7
2023-02-27T13:58:28.395Z,2.7
2023-02-27T13:59:36.084Z,2.7
2023-02-27T14:00:45.553Z,2.4
2023-02-27T14:02:01.719Z,2.3
2023-02-27T14:03:13.785Z,2.2
2023-02-27T14:04:26.776Z,2.4
2023-02-27T14:05:36.934Z,2.5
2023-02-27T14:06:43.873Z,2.7
2023-02-27T14:07:51.331Z,2.6
2023-02-27T14:09:08.735Z,2.6
2023-02-27T14:10:05.306Z,2.5
2023-02-27T14:11:12.583Z,2.5
2023-02-27T14:12:19.680Z,2.3
2023-02-27T14:13:29.311Z,2.3
2023-02-27T14:14:50.701Z,2.5
2023-02-27T14:15:58.011Z,2.7
2023-02-27T14:17:05.006Z,2.7
2023-02-27T14:18:20.192Z,2.5
2023-02-27T14:19:29.295Z,2.5
2023-02-27T14:20:44.042Z,2.6
2023-02-27T14:21:50.918Z,2.6
2023-02-27T14:23:03.595Z,2.5
2023-02-27T14:24:15.767Z,2.4
2023-02-27T14:25:27.932Z,2.6
2023-02-27T14:26:38.316Z,2.5
2023-02-27T14:27:45.217Z,2.5
2023-02-27T14:28:58.229Z,2.4
2023-02-27T14:30:05.467Z,2.5
2023-02-27T14:31:13.115Z,2.6
2023-02-27T14:32:26.218Z,2.6
2023-02-27T14:33:40.282Z,2.6
2023-02-27T14:34:49.342Z,2.7
2023-02-27T14:35:59.597Z,2.8
2023-02-27T14:37:06.690Z,2.6
2023-02-27T14:38:13.703Z,2.6
2023-02-27T14:39:20.800Z,2.8
2023-02-27T14:40:35.810Z,2.6
2023-02-27T14:41:50.445Z,2.6
2023-02-27T14:43:08.020Z,2.7
2023-02-27T14:44:20.843Z,2.8
2023-02-27T14:45:27.923Z,2.9
2023-02-27T14:46:37.912Z,2.9
2023-02-27T14:47:44.864Z,2.8
2023-02-27T14:48:52.855Z,2.8
2023-02-27T14:50:02.596Z,2.5
2023-02-27T14:51:11.726Z,2.4
2023-02-27T14:52:21.620Z,2.4
2023-02-27T14:53:28.619Z,2.4
2023-02-27T14:54:35.563Z,2.2
2023-02-27T14:55:44.486Z,2.3
2023-02-27T14:56:59.311Z,2.2
2023-02-27T14:58:07.136Z,2.1
2023-02-27T14:59:20.323Z,2.1
2023-02-27T15:00:32.393Z,2
2023-02-27T15:01:45.231Z,1.9
2023-02-27T15:02:52.396Z,2
2023-02-27T15:04:02.472Z,1.9
2023-02-27T15:05:09.300Z,2
2023-02-27T15:06:19.349Z,2.1
2023-02-27T15:07:34.364Z,1.9
2023-02-27T15:08:42.082Z,2.1
2023-02-27T15:09:49.815Z,2.1
2023-02-27T15:10:57.631Z,2.2
2023-02-27T15:12:05.019Z,2.2
2023-02-27T15:13:11.612Z,2
2023-02-27T15:14:26.559Z,1.9
2023-02-27T15:15:34.024Z,2.1
2023-02-27T15:16:40.979Z,2.3
2023-02-27T15:17:50.585Z,2.2
2023-02-27T15:18:58.256Z,2
2023-02-27T15:20:18.071Z,2.1
2023-02-27T15:21:30.839Z,2
2023-02-27T15:22:39.853Z,2
2023-02-27T15:23:48.514Z,2
2023-02-27T15:25:01.524Z,2.1
2023-02-27T15:26:12.280Z,2
2023-02-27T15:27:19.357Z,2.1
2023-02-27T15:28:30.171Z,2.2
2023-02-27T15:29:37.204Z,2.2
2023-02-27T15:30:47.775Z,1.9
2023-02-27T15:31:58.656Z,2.1
2023-02-27T15:33:12.390Z,2.1
2023-02-27T15:34:23.249Z,2
2023-02-27T15:35:30.352Z,2
2023-02-27T15:36:40.661Z,1.8
2023-02-27T15:37:47.817Z,1.8
2023-02-27T15:39:00.310Z,1.9
2023-02-27T15:40:15.297Z,1.8
2023-02-27T15:41:25.498Z,1.9
2023-02-27T15:42:32.141Z,1.8
2023-02-27T15:43:44.142Z,1.8
2023-02-27T15:44:51.568Z,1.9
2023-02-27T15:45:59.233Z,1.8
2023-02-27T15:47:09.017Z,1.4
2023-02-27T15:48:16.094Z,1.5
2023-02-27T15:49:22.985Z,1.4
2023-02-27T15:50:29.873Z,1.4
2023-02-27T15:51:37.331Z,1.4
2023-02-27T15:52:47.462Z,1.5
2023-02-27T15:53:59.848Z,1.3
2023-02-27T15:55:07.165Z,1.5
2023-02-27T15:56:16.958Z,1.2
2023-02-27T15:57:26.543Z,1.3
2023-02-27T15:58:34.940Z,1.2
2023-02-27T15:59:42.034Z,1.1
2023-02-27T16:00:48.972Z,1.2
2023-02-27T16:02:06.571Z,1.3
2023-02-27T16:03:13.564Z,1.3